createdAt,value
2018-09-04T00:00:41.558Z,21.20
2018-09-04T00:03:09.090Z,24.43
2018-09-04T00:05:36.631Z,20.13
2018-09-04T00:08:04.412Z,25.23
2018-09-04T00:10:31.976Z,21.57
2018-09-04T00:12:59.502Z,25.03
2018-09-04T00:15:27.156Z,24.63
2018-09-04T00:17:54.664Z,25.83
2018-09-04T00:20:22.248Z,23.97
2018-09-04T00:22:49.750Z,35.47
2018-09-04T00:25:17.284Z,27.30
2018-09-04T00:27:44.825Z,21.73
2018-09-04T00:30:12.373Z,24.33
2018-09-04T00:32:40.086Z,23.60
2018-09-04T00:35:07.648Z,26.80
2018-09-04T00:37:35.254Z,32.90
2018-09-04T00:40:02.979Z,36.43
2018-09-04T00:42:30.533Z,34.00
2018-09-04T00:44:58.129Z,42.80
2018-09-04T00:47:25.655Z,43.93
2018-09-04T00:49:53.229Z,34.17
2018-09-04T00:52:20.868Z,34.00
2018-09-04T00:54:48.379Z,39.10
2018-09-04T00:57:15.931Z,34.60
2018-09-04T00:59:43.466Z,32.83
2018-09-04T01:02:10.995Z,30.70
2018-09-04T01:04:38.579Z,23.40
2018-09-04T01:07:06.155Z,26.17
2018-09-04T01:09:33.933Z,22.83
2018-09-04T01:12:01.470Z,23.50
2018-09-04T01:14:28.983Z,29.40
2018-09-04T01:16:56.607Z,27.87
2018-09-04T01:19:24.205Z,21.27
2018-09-04T01:21:51.721Z,22.27
2018-09-04T01:24:19.291Z,15.50
2018-09-04T01:26:46.841Z,19.47
2018-09-04T01:29:14.437Z,17.40
2018-09-04T01:31:42.015Z,15.07
2018-09-04T01:34:09.544Z,15.20
2018-09-04T01:36:37.117Z,21.03
2018-09-04T01:39:05.879Z,12.80
2018-09-04T01:41:34.104Z,18.63
2018-09-04T01:44:01.644Z,17.00
2018-09-04T01:46:29.262Z,16.90
2018-09-04T01:48:56.842Z,20.27
2018-09-04T01:51:24.396Z,15.20
2018-09-04T01:53:51.902Z,19.00
2018-09-04T01:56:19.423Z,15.90
2018-09-04T01:58:47.007Z,24.10
2018-09-04T02:01:14.594Z,18.50
2018-09-04T02:03:42.120Z,29.20
2018-09-04T02:06:09.658Z,16.90
2018-09-04T02:08:37.168Z,23.67
2018-09-04T02:11:05.454Z,20.53
2018-09-04T02:13:33.810Z,17.83
2018-09-04T02:16:01.442Z,19.33
2018-09-04T02:18:29.002Z,21.00
2018-09-04T02:20:56.534Z,24.17
2018-09-04T02:23:24.086Z,18.27
2018-09-04T02:25:51.642Z,22.37
2018-09-04T02:28:19.150Z,22.20
2018-09-04T02:30:46.656Z,24.83
2018-09-04T02:33:14.189Z,21.57
2018-09-04T02:35:41.739Z,22.30
2018-09-04T02:38:09.322Z,21.80
2018-09-04T02:40:37.164Z,23.20
2018-09-04T02:43:04.902Z,21.40
2018-09-04T02:45:32.449Z,19.87
2018-09-04T02:48:00.094Z,27.07
2018-09-04T02:50:27.642Z,27.30
2018-09-04T02:52:55.182Z,39.30
2018-09-04T02:55:22.689Z,22.40
2018-09-04T02:57:50.218Z,25.37
2018-09-04T03:00:17.830Z,24.67
2018-09-04T03:02:45.377Z,22.57
2018-09-04T03:05:12.917Z,30.30
2018-09-04T03:07:40.447Z,27.20
2018-09-04T03:10:08.210Z,26.50
2018-09-04T03:12:35.793Z,29.47
2018-09-04T03:15:03.444Z,22.03
2018-09-04T03:17:31.067Z,28.27
2018-09-04T03:19:58.653Z,29.57
2018-09-04T03:22:26.197Z,32.47
2018-09-04T03:24:53.733Z,28.90
2018-09-04T03:27:21.257Z,32.90
2018-09-04T03:29:48.790Z,29.83
2018-09-04T03:32:16.315Z,26.20
2018-09-04T03:34:43.858Z,27.03
2018-09-04T03:37:11.501Z,27.30
2018-09-04T03:39:39.079Z,29.57
2018-09-04T03:42:06.628Z,32.53
2018-09-04T03:44:34.186Z,27.60
2018-09-04T03:47:01.757Z,27.47
2018-09-04T03:49:29.312Z,26.90
2018-09-04T03:51:56.822Z,26.60
2018-09-04T03:54:24.379Z,28.93
2018-09-04T03:56:51.933Z,29.80
2018-09-04T03:59:19.484Z,35.73
2018-09-04T04:01:47.006Z,30.97
2018-09-04T04:04:14.535Z,29.00
2018-09-04T04:06:42.312Z,27.73
2018-09-04T04:09:10.782Z,29.03
2018-09-04T04:11:38.378Z,26.60
2018-09-04T04:14:05.962Z,28.37
2018-09-04T04:16:33.593Z,26.50
2018-09-04T04:19:01.143Z,25.67
2018-09-04T04:21:28.750Z,31.47
2018-09-04T04:23:56.435Z,22.47
2018-09-04T04:26:23.877Z,29.47
2018-09-04T04:28:51.482Z,40.27
2018-09-04T04:31:19.132Z,24.27
2018-09-04T04:33:46.656Z,22.77
2018-09-04T04:36:14.186Z,34.93
2018-09-04T04:38:41.710Z,24.07
2018-09-04T04:41:09.254Z,38.47
2018-09-04T04:43:36.793Z,22.90
2018-09-04T04:46:04.448Z,23.93
2018-09-04T04:48:31.977Z,19.50
2018-09-04T04:50:59.536Z,26.63
2018-09-04T04:53:27.034Z,24.40
2018-09-04T04:55:54.595Z,25.30
2018-09-04T04:58:22.138Z,18.20
2018-09-04T05:00:49.693Z,27.70
2018-09-04T05:03:17.262Z,19.50
2018-09-04T05:05:44.811Z,21.60
2018-09-04T05:08:12.397Z,24.73
2018-09-04T05:10:39.963Z,29.47
2018-09-04T05:13:07.565Z,29.43
2018-09-04T05:15:35.099Z,25.10
2018-09-04T05:18:02.681Z,25.03
2018-09-04T05:20:30.297Z,28.23
2018-09-04T05:22:57.872Z,22.90
2018-09-04T05:25:25.480Z,25.70
2018-09-04T05:27:53.043Z,25.87
2018-09-04T05:30:20.579Z,23.13
2018-09-04T05:32:53.775Z,25.37
2018-09-04T05:35:21.389Z,20.80
2018-09-04T05:37:48.921Z,24.87
2018-09-04T05:40:16.436Z,26.70
2018-09-04T05:42:46.735Z,23.07
2018-09-04T05:45:14.339Z,27.87
2018-09-04T05:47:42.043Z,19.20
2018-09-04T05:50:10.181Z,19.50
2018-09-04T05:52:37.810Z,15.73
2018-09-04T05:55:05.580Z,18.83
2018-09-04T05:57:33.118Z,21.33
2018-09-04T06:00:00.924Z,19.43
2018-09-04T06:02:30.122Z,14.90
2018-09-04T06:04:57.652Z,20.07
2018-09-04T06:07:25.200Z,16.73
2018-09-04T06:09:52.790Z,16.57
2018-09-04T06:12:20.334Z,15.23
2018-09-04T06:14:47.864Z,15.03
2018-09-04T06:17:15.370Z,12.43
2018-09-04T06:19:43.127Z,14.57
2018-09-04T06:22:10.709Z,13.33
2018-09-04T06:24:38.268Z,22.20
2018-09-04T06:27:05.874Z,12.87
2018-09-04T06:29:33.408Z,13.57
2018-09-04T06:32:00.953Z,18.70
2018-09-04T06:34:28.531Z,18.03
2018-09-04T06:36:56.125Z,22.23
2018-09-04T06:39:23.682Z,14.30
2018-09-04T06:41:51.267Z,15.70
2018-09-04T06:44:18.774Z,14.23
2018-09-04T06:46:46.321Z,44.30
2018-09-04T06:49:13.891Z,19.50
2018-09-04T06:51:41.432Z,17.07
2018-09-04T06:54:08.982Z,19.90
2018-09-04T06:56:36.496Z,24.73
2018-09-04T06:59:04.233Z,18.70
2018-09-04T07:01:32.014Z,21.43
2018-09-04T07:03:59.552Z,13.47
2018-09-04T07:06:27.080Z,16.90
2018-09-04T07:08:54.608Z,17.20
2018-09-04T07:11:22.166Z,17.23
2018-09-04T07:13:49.704Z,11.30
2018-09-04T07:16:17.244Z,15.03
2018-09-04T07:18:44.834Z,13.33
2018-09-04T07:21:12.362Z,13.67
2018-09-04T07:23:39.912Z,12.57
2018-09-04T07:26:07.558Z,14.67
2018-09-04T07:28:35.120Z,12.67
2018-09-04T07:31:02.738Z,12.03
2018-09-04T07:33:30.318Z,11.07
2018-09-04T07:35:57.852Z,11.23
2018-09-04T07:38:25.539Z,10.10
2018-09-04T07:40:53.061Z,14.90
2018-09-04T07:43:20.616Z,8.20
2018-09-04T07:45:48.211Z,10.47
2018-09-04T07:48:15.777Z,10.20
2018-09-04T07:50:43.293Z,7.80
2018-09-04T07:53:10.829Z,8.50
2018-09-04T07:55:38.445Z,6.33
2018-09-04T07:58:06.038Z,7.70
2018-09-04T08:00:33.628Z,7.97
2018-09-04T08:03:01.273Z,6.03
2018-09-04T08:05:28.919Z,8.97
2018-09-04T08:07:56.657Z,5.30
2018-09-04T08:10:24.170Z,4.50
2018-09-04T08:12:51.755Z,5.00
2018-09-04T08:15:19.344Z,3.90
2018-09-04T08:17:46.950Z,8.37
2018-09-04T08:20:14.493Z,7.33
2018-09-04T08:22:42.017Z,5.90
2018-09-04T08:25:09.614Z,6.47
2018-09-04T08:27:37.313Z,6.77
2018-09-04T08:30:04.951Z,9.13
2018-09-04T08:32:32.585Z,9.13
2018-09-04T08:35:00.137Z,11.60
2018-09-04T08:37:27.657Z,10.37
2018-09-04T08:39:55.249Z,13.67
2018-09-04T08:42:22.743Z,11.50
2018-09-04T08:44:50.289Z,11.43
2018-09-04T08:47:18.287Z,12.27
2018-09-04T08:49:45.828Z,13.50
2018-09-04T08:52:13.511Z,13.97
2018-09-04T08:54:41.117Z,12.73
2018-09-04T08:57:08.765Z,14.10
2018-09-04T08:59:36.372Z,11.50
2018-09-04T09:02:04.015Z,12.87
2018-09-04T09:04:31.626Z,12.87
2018-09-04T09:06:59.168Z,12.57
2018-09-04T09:09:26.705Z,12.10
2018-09-04T09:11:54.249Z,10.73
2018-09-04T09:14:21.823Z,13.00
2018-09-04T09:16:49.439Z,11.40
2018-09-04T09:19:16.900Z,11.83
2018-09-04T09:21:44.448Z,10.50
2018-09-04T09:24:12.007Z,10.50
2018-09-04T09:26:39.563Z,12.10
2018-09-04T09:29:07.070Z,9.70
2018-09-04T09:31:34.695Z,10.37
2018-09-04T09:34:02.207Z,11.30
2018-09-04T09:36:29.782Z,10.33
2018-09-04T09:38:57.350Z,13.47
2018-09-04T09:41:24.906Z,10.57
2018-09-04T09:43:52.436Z,11.47
2018-09-04T09:46:19.969Z,16.70
2018-09-04T09:48:47.762Z,9.80
2018-09-04T09:51:15.341Z,17.00
2018-09-04T09:53:42.947Z,13.20
2018-09-04T09:56:11.041Z,16.23
2018-09-04T09:58:39.352Z,17.93
2018-09-04T10:01:12.468Z,11.10
2018-09-04T10:03:48.586Z,10.77
2018-09-04T10:06:17.228Z,12.77
2018-09-04T10:08:44.836Z,10.00
2018-09-04T10:11:12.595Z,10.90
2018-09-04T10:13:40.084Z,8.10
2018-09-04T10:16:07.645Z,10.13
2018-09-04T10:18:35.195Z,9.60
2018-09-04T10:21:02.791Z,9.50
2018-09-04T10:23:30.616Z,12.93
2018-09-04T10:25:58.278Z,10.00
2018-09-04T10:28:25.910Z,12.63
2018-09-04T10:30:53.475Z,12.80
2018-09-04T10:33:20.993Z,15.20
2018-09-04T10:35:48.525Z,15.50
2018-09-04T10:38:16.285Z,15.50
2018-09-04T10:40:45.086Z,18.80
2018-09-04T10:43:12.643Z,20.47
2018-09-04T10:45:45.675Z,22.70
2018-09-04T10:48:13.997Z,19.17
2018-09-04T10:50:41.660Z,20.90
2018-09-04T10:53:09.281Z,21.23
2018-09-04T10:55:36.915Z,26.27
2018-09-04T10:58:05.092Z,20.47
2018-09-04T11:00:32.921Z,22.20
2018-09-04T11:03:00.791Z,24.30
2018-09-04T11:05:28.445Z,23.57
2018-09-04T11:07:56.108Z,23.53
2018-09-04T11:10:23.709Z,20.00
2018-09-04T11:12:51.628Z,22.30
2018-09-04T11:15:19.227Z,25.20
2018-09-04T11:17:46.807Z,18.97
2018-09-04T11:20:14.393Z,18.53
2018-09-04T11:22:41.942Z,23.00
2018-09-04T11:25:09.517Z,20.60
2018-09-04T11:27:37.529Z,22.17
2018-09-04T11:30:07.318Z,17.40
2018-09-04T11:32:34.837Z,17.37
2018-09-04T11:35:02.407Z,21.53
2018-09-04T11:37:29.966Z,21.90
2018-09-04T11:39:57.583Z,18.40
2018-09-04T11:42:25.111Z,19.07
2018-09-04T11:44:52.633Z,16.70
2018-09-04T11:47:20.164Z,17.40
2018-09-04T11:49:47.702Z,16.30
2018-09-04T11:52:15.274Z,15.73
2018-09-04T11:54:42.821Z,11.37
2018-09-04T11:57:10.370Z,12.30
2018-09-04T11:59:42.074Z,13.47
2018-09-04T12:02:40.266Z,11.80
2018-09-04T12:05:07.873Z,12.50
2018-09-04T12:07:35.426Z,12.43
2018-09-04T12:10:03.064Z,11.33
2018-09-04T12:12:32.654Z,14.50
2018-09-04T12:15:00.991Z,10.60
2018-09-04T12:17:28.586Z,12.50
2018-09-04T12:21:03.632Z,13.23
2018-09-04T12:23:31.102Z,11.10
2018-09-04T12:25:59.868Z,15.10
2018-09-04T12:28:28.183Z,13.53
2018-09-04T12:30:56.311Z,12.07
2018-09-04T12:33:23.963Z,10.13
2018-09-04T12:35:51.545Z,10.20
2018-09-04T12:38:21.386Z,9.10
2018-09-04T12:40:49.133Z,11.70
2018-09-04T12:43:16.712Z,11.10
2018-09-04T12:45:49.906Z,12.17
2018-09-04T12:48:25.470Z,11.47
2018-09-04T12:50:54.025Z,11.83
2018-09-04T12:53:22.384Z,10.17
2018-09-04T12:55:50.066Z,10.37
2018-09-04T12:58:17.666Z,9.23
2018-09-04T13:00:47.314Z,9.80
2018-09-04T13:03:16.236Z,8.77
2018-09-04T13:05:43.806Z,11.43
2018-09-04T13:08:11.973Z,7.67
2018-09-04T13:10:39.514Z,9.37
2018-09-04T13:13:07.146Z,11.80
2018-09-04T13:15:34.774Z,10.77
2018-09-04T13:18:02.575Z,13.47
2018-09-04T13:20:30.142Z,9.43
2018-09-04T13:22:57.737Z,11.17
2018-09-04T13:25:25.355Z,10.83
2018-09-04T13:27:52.974Z,9.50
2018-09-04T13:30:20.520Z,9.70
2018-09-04T13:32:48.077Z,11.23
2018-09-04T13:35:15.625Z,11.50
2018-09-04T13:37:43.151Z,10.33
2018-09-04T13:40:10.765Z,12.67
2018-09-04T13:42:38.421Z,13.63
2018-09-04T13:45:06.078Z,7.40
2018-09-04T13:47:34.207Z,11.30
2018-09-04T13:50:01.859Z,9.80
2018-09-04T13:52:30.413Z,7.93
2018-09-04T13:54:58.188Z,5.90
2018-09-04T13:57:26.327Z,9.30
2018-09-04T13:59:53.891Z,7.00
2018-09-04T14:02:21.469Z,8.27
2018-09-04T14:04:49.054Z,9.33
2018-09-04T14:07:16.663Z,8.40
2018-09-04T14:09:44.387Z,8.33
2018-09-04T14:12:12.159Z,7.40
2018-09-04T14:14:39.707Z,7.27
2018-09-04T14:17:09.745Z,8.17
2018-09-04T14:19:37.395Z,9.00
2018-09-04T14:22:05.364Z,9.00
2018-09-04T14:24:32.983Z,7.67
2018-09-04T14:27:00.523Z,9.93
2018-09-04T14:31:55.650Z,8.13
2018-09-04T14:34:23.194Z,7.97
2018-09-04T14:36:51.198Z,8.53
2018-09-04T14:39:18.584Z,6.73
2018-09-04T14:41:46.168Z,8.40
2018-09-04T14:44:13.742Z,6.60
2018-09-04T14:46:41.478Z,7.67
2018-09-04T14:49:09.058Z,8.90
2018-09-04T14:51:36.599Z,6.87
2018-09-04T14:54:04.208Z,8.20
2018-09-04T14:56:31.789Z,7.90
2018-09-04T14:58:59.345Z,9.00
2018-09-04T15:01:26.898Z,7.27
2018-09-04T15:03:54.443Z,6.10
2018-09-04T15:06:21.992Z,8.53
2018-09-04T15:08:49.560Z,9.23
2018-09-04T15:11:17.136Z,7.80
2018-09-04T15:13:44.809Z,6.83
2018-09-04T15:16:12.357Z,10.17
2018-09-04T15:18:39.926Z,8.90
2018-09-04T15:21:07.485Z,5.80
2018-09-04T15:23:35.106Z,9.47
2018-09-04T15:26:02.738Z,9.73
2018-09-04T15:28:30.326Z,8.70
2018-09-04T15:30:57.898Z,7.60
2018-09-04T15:33:25.495Z,8.83
2018-09-04T15:35:53.091Z,11.60
2018-09-04T15:38:20.668Z,8.00
2018-09-04T15:40:48.303Z,10.33
2018-09-04T15:43:15.910Z,9.23
2018-09-04T15:45:43.566Z,9.90
2018-09-04T15:48:11.099Z,9.00
2018-09-04T15:50:38.794Z,12.40
2018-09-04T15:53:06.385Z,8.27
2018-09-04T15:55:34.004Z,13.33
2018-09-04T15:58:01.581Z,10.00
2018-09-04T16:00:29.159Z,10.80
2018-09-04T16:02:56.731Z,9.73
2018-09-04T16:05:24.652Z,10.00
2018-09-04T16:07:52.257Z,10.57
2018-09-04T16:10:19.912Z,11.17
2018-09-04T16:12:47.883Z,11.87
2018-09-04T16:15:15.535Z,8.67
2018-09-04T16:17:43.158Z,13.30
2018-09-04T16:20:10.778Z,14.43
2018-09-04T16:22:38.402Z,12.87
2018-09-04T16:25:06.031Z,13.97
2018-09-04T16:27:33.766Z,13.77
2018-09-04T16:30:01.378Z,14.40
2018-09-04T16:32:29.054Z,18.33
2018-09-04T16:34:56.729Z,12.20
2018-09-04T16:37:24.377Z,19.20
2018-09-04T16:39:52.025Z,12.63
2018-09-04T16:42:19.698Z,17.80
2018-09-04T16:44:47.314Z,18.23
2018-09-04T16:47:15.061Z,15.53
2018-09-04T16:49:43.056Z,16.00
2018-09-04T16:52:10.747Z,15.20
2018-09-04T16:54:38.462Z,15.70
2018-09-04T16:57:06.103Z,20.20
2018-09-04T16:59:33.766Z,23.43
2018-09-04T17:02:01.477Z,16.23
2018-09-04T17:04:29.137Z,14.50
2018-09-04T17:06:56.748Z,18.67
2018-09-04T17:09:24.426Z,14.77
2018-09-04T17:11:52.142Z,19.40
2018-09-04T17:14:19.792Z,20.47
2018-09-04T17:16:47.444Z,20.87
2018-09-04T17:19:15.125Z,21.20
2018-09-04T17:21:42.792Z,25.13
2018-09-04T17:24:10.447Z,20.03
2018-09-04T17:26:38.088Z,20.63
2018-09-04T17:29:06.782Z,17.87
2018-09-04T17:31:34.457Z,21.93
2018-09-04T17:34:02.138Z,18.43
2018-09-04T17:36:29.720Z,21.87
2018-09-04T17:38:57.864Z,19.27
2018-09-04T17:41:25.501Z,18.27
2018-09-04T17:43:53.140Z,19.37
2018-09-04T17:46:20.784Z,26.17
2018-09-04T17:48:48.451Z,18.73
2018-09-04T17:51:16.080Z,27.93
2018-09-04T17:53:43.784Z,27.27
2018-09-04T17:56:11.452Z,27.07
2018-09-04T17:58:39.190Z,27.57
2018-09-04T18:01:06.898Z,23.67
2018-09-04T18:03:34.548Z,24.57
2018-09-04T18:06:02.259Z,28.43
2018-09-04T18:08:29.911Z,28.13
2018-09-04T18:10:57.593Z,26.10
2018-09-04T18:13:25.963Z,28.40
2018-09-04T18:15:53.742Z,25.73
2018-09-04T18:18:21.471Z,29.37
2018-09-04T18:20:49.730Z,29.07
2018-09-04T18:23:17.381Z,27.47
2018-09-04T18:25:44.983Z,28.90
2018-09-04T18:28:12.605Z,35.60
2018-09-04T18:30:40.346Z,36.13
2018-09-04T18:33:07.986Z,27.77
2018-09-04T18:35:35.661Z,25.53
2018-09-04T18:38:03.642Z,31.63
2018-09-04T18:40:32.329Z,27.10
2018-09-04T18:42:59.992Z,22.60
2018-09-04T18:45:40.122Z,28.03
2018-09-04T18:48:07.804Z,28.90
2018-09-04T18:50:35.705Z,25.33
2018-09-04T18:53:07.166Z,37.40
2018-09-04T18:55:35.155Z,29.97
2018-09-04T18:58:02.894Z,28.07
2018-09-04T19:00:31.553Z,32.97
2018-09-04T19:02:59.235Z,27.20
2018-09-04T19:06:12.491Z,29.20
2018-09-04T19:08:40.192Z,26.57
2018-09-04T19:11:08.668Z,27.30
2018-09-04T19:13:37.080Z,26.90
2018-09-04T19:16:04.932Z,29.20
2018-09-04T19:18:33.020Z,28.77
2018-09-04T19:21:00.683Z,26.43
2018-09-04T19:23:28.684Z,31.53
2018-09-04T19:25:56.389Z,27.50
2018-09-04T19:28:24.487Z,31.17
2018-09-04T19:30:52.351Z,30.83
2018-09-04T19:33:20.092Z,34.93
2018-09-04T19:35:47.806Z,30.33
2018-09-04T19:38:16.758Z,33.20
2018-09-04T19:40:44.454Z,27.80
2018-09-04T19:43:12.157Z,26.37
2018-09-04T19:45:39.965Z,30.50
2018-09-04T19:48:07.707Z,26.73
2018-09-04T19:50:35.470Z,25.53
2018-09-04T19:53:03.222Z,35.13
2018-09-04T19:55:31.122Z,31.40
2018-09-04T19:57:58.777Z,35.13
2018-09-04T20:00:26.476Z,39.03
2018-09-04T20:02:54.151Z,34.40
2018-09-04T20:05:21.853Z,32.67
2018-09-04T20:07:49.573Z,33.37
2018-09-04T20:10:17.295Z,28.73
2018-09-04T20:12:45.605Z,38.17
2018-09-04T20:15:13.290Z,37.43
2018-09-04T20:17:41.251Z,35.37
2018-09-04T20:20:08.977Z,33.87
2018-09-04T20:22:36.689Z,37.97
2018-09-04T20:25:04.387Z,34.30
2018-09-04T20:27:32.101Z,33.23
2018-09-04T20:29:59.799Z,36.13
2018-09-04T20:32:27.637Z,32.33
2018-09-04T20:34:55.881Z,29.87
2018-09-04T20:37:23.644Z,28.27
2018-09-04T20:39:51.385Z,37.07
2018-09-04T20:42:19.059Z,31.33
2018-09-04T20:44:46.807Z,30.33
2018-09-04T20:47:14.527Z,35.60
2018-09-04T20:49:42.395Z,31.23
2018-09-04T20:52:10.293Z,33.90
2018-09-04T20:54:37.994Z,40.57
2018-09-04T20:57:31.869Z,38.30
2018-09-04T21:00:19.369Z,34.93
2018-09-04T21:02:58.469Z,36.20
2018-09-04T21:05:37.753Z,40.07
2018-09-04T21:08:18.030Z,27.67
2018-09-04T21:10:46.468Z,35.57
2018-09-04T21:13:14.504Z,28.30
2018-09-04T21:15:42.098Z,28.90
2018-09-04T21:18:09.903Z,33.50
2018-09-04T21:20:37.565Z,40.13
2018-09-04T21:23:05.283Z,36.77
2018-09-04T21:25:32.817Z,31.00
2018-09-04T21:28:00.407Z,30.57
2018-09-04T21:30:28.194Z,29.67
2018-09-04T21:32:55.842Z,35.73
2018-09-04T21:35:23.632Z,34.03
2018-09-04T21:37:51.254Z,29.00
2018-09-04T21:40:18.909Z,34.40
2018-09-04T21:42:46.496Z,31.93
2018-09-04T21:45:14.114Z,28.90
2018-09-04T21:47:41.719Z,37.23
2018-09-04T21:50:09.687Z,31.63
2018-09-04T21:52:37.278Z,31.50
2018-09-04T21:55:05.431Z,31.73
2018-09-04T21:57:33.016Z,30.87
2018-09-04T22:00:00.587Z,26.93
2018-09-04T22:02:28.116Z,34.20
2018-09-04T22:04:55.681Z,32.47
2018-09-04T22:07:23.261Z,35.03
2018-09-04T22:09:50.807Z,26.43
2018-09-04T22:12:18.397Z,39.50
2018-09-04T22:14:46.015Z,31.90
2018-09-04T22:17:13.562Z,29.80
2018-09-04T22:19:41.133Z,32.63
2018-09-04T22:22:08.691Z,24.67
2018-09-04T22:24:36.567Z,26.53
2018-09-04T22:27:07.267Z,25.80
2018-09-04T22:29:35.942Z,25.23
2018-09-04T22:32:03.496Z,23.30
2018-09-04T22:34:31.563Z,30.23
2018-09-04T22:36:59.451Z,18.63
2018-09-04T22:39:27.002Z,20.27
2018-09-04T22:41:54.555Z,18.27
2018-09-04T22:44:22.130Z,21.03
2018-09-04T22:46:49.997Z,18.67
2018-09-04T22:49:17.564Z,19.90
2018-09-04T22:51:45.177Z,28.57
2018-09-04T22:54:12.869Z,16.37
2018-09-04T22:56:40.419Z,19.43
2018-09-04T22:59:08.019Z,18.13
2018-09-04T23:01:35.573Z,17.63
2018-09-04T23:04:03.134Z,18.23
2018-09-04T23:06:30.840Z,15.60
2018-09-04T23:08:58.411Z,21.13
2018-09-04T23:11:26.053Z,23.17
2018-09-04T23:13:53.617Z,15.83
2018-09-04T23:16:21.173Z,20.03
2018-09-04T23:18:48.699Z,15.10
2018-09-04T23:21:16.274Z,23.50
2018-09-04T23:23:43.889Z,22.07
2018-09-04T23:26:11.423Z,20.93
2018-09-04T23:28:38.994Z,17.03
2018-09-04T23:31:06.790Z,20.53
2018-09-04T23:33:34.656Z,16.03
2018-09-04T23:36:02.194Z,18.60
2018-09-04T23:38:29.733Z,15.40
2018-09-04T23:40:57.276Z,15.40
2018-09-04T23:43:24.880Z,22.57
2018-09-04T23:45:52.494Z,21.70
2018-09-04T23:48:20.110Z,14.60
2018-09-04T23:50:47.668Z,16.53
2018-09-04T23:53:15.238Z,18.00
2018-09-04T23:55:42.830Z,16.03
2018-09-04T23:58:10.354Z,17.50
